Time;durP1;ratioP1;P1;durP2;ratioP2;P2;SDS_P1;SDS_P2;PMS_P1;PMS_P2;Temp;Humidity;BMP_temperature;BMP_pressure;BME280_temperature;BME280_humidity;BME280_pressure;Samples;Min_cycle;Max_cycle;Signal;HPM_P1;HPM_P2
2023/03/11 00:00:23;;;;;;;1.70;1.50;;;2.30;98.20;;;;;;5072258;28;20457;-81
2023/03/11 00:02:51;;;;;;;1.67;1.50;;;2.30;98.20;;;;;;5074008;28;20501;-77
2023/03/11 00:05:22;;;;;;;1.70;1.60;;;2.30;98.20;;;;;;5074108;28;20511;-78
2023/03/11 00:07:50;;;;;;;2.13;1.93;;;2.30;98.20;;;;;;5065970;28;20504;-77
2023/03/11 00:10:19;;;;;;;2.80;2.10;;;2.30;98.20;;;;;;5074702;28;20477;-78
2023/03/11 00:12:45;;;;;;;1.67;1.40;;;2.30;98.20;;;;;;5068347;28;20486;-80
2023/03/11 00:15:13;;;;;;;1.63;1.40;;;2.30;98.20;;;;;;5064748;28;20481;-77
2023/03/11 00:17:40;;;;;;;1.80;1.70;;;2.30;98.20;;;;;;5064496;28;21033;-80
2023/03/11 00:20:15;;;;;;;1.63;1.40;;;2.30;98.20;;;;;;5069587;28;20459;-79
2023/03/11 00:22:43;;;;;;;1.70;1.50;;;2.30;98.20;;;;;;5076949;28;20488;-78
2023/03/11 00:25:11;;;;;;;1.63;1.40;;;2.30;98.20;;;;;;5063726;28;20493;-78
2023/03/11 00:27:38;;;;;;;1.70;1.50;;;2.30;98.20;;;;;;5065636;28;20497;-78
2023/03/11 00:30:06;;;;;;;1.70;1.50;;;2.30;98.20;;;;;;5071603;28;20485;-78
2023/03/11 00:32:33;;;;;;;1.70;1.50;;;2.30;98.20;;;;;;5076331;28;20492;-79
2023/03/11 00:34:59;;;;;;;1.70;1.60;;;2.30;98.20;;;;;;5070905;28;20496;-77
2023/03/11 00:37:26;;;;;;;1.73;1.63;;;2.30;98.20;;;;;;5074067;28;20514;-78
2023/03/11 00:39:57;;;;;;;1.60;1.50;;;2.30;98.20;;;;;;5077672;28;20458;-78
2023/03/11 00:42:24;;;;;;;1.70;1.60;;;2.30;98.20;;;;;;5072530;28;20481;-78
2023/03/11 00:44:51;;;;;;;1.70;1.60;;;2.30;98.20;;;;;;5078281;28;20477;-81
2023/03/11 00:47:17;;;;;;;1.67;1.50;;;2.30;98.20;;;;;;5061922;28;20986;-77
2023/03/11 00:49:44;;;;;;;1.63;1.40;;;2.30;98.20;;;;;;5064303;28;21092;-78
2023/03/11 00:52:11;;;;;;;1.60;1.40;;;2.30;98.20;;;;;;5069578;28;20492;-78
2023/03/11 00:54:37;;;;;;;1.70;1.50;;;2.30;98.20;;;;;;5065928;28;20482;-78
2023/03/11 00:57:05;;;;;;;1.80;1.70;;;2.30;98.20;;;;;;5068961;28;20493;-78
2023/03/11 00:59:34;;;;;;;1.67;1.50;;;2.40;98.20;;;;;;5075465;28;20457;-75
2023/03/11 01:02:01;;;;;;;1.67;1.50;;;2.30;98.20;;;;;;5060700;28;20488;-77
2023/03/11 01:04:28;;;;;;;1.70;1.50;;;2.30;98.20;;;;;;5076986;28;20481;-77
2023/03/11 01:06:54;;;;;;;1.70;1.50;;;2.30;98.20;;;;;;5065585;28;20587;-79
2023/03/11 01:09:21;;;;;;;1.70;1.60;;;2.30;98.20;;;;;;5078329;28;20453;-80
2023/03/11 01:11:48;;;;;;;1.63;1.40;;;2.30;98.20;;;;;;5075148;28;20476;-78
2023/03/11 01:14:16;;;;;;;1.73;1.63;;;2.30;98.20;;;;;;5063914;28;20493;-78
2023/03/11 01:16:43;;;;;;;1.60;1.40;;;2.30;98.20;;;;;;5058907;28;20514;-78
2023/03/11 01:19:09;;;;;;;1.70;1.60;;;2.30;98.20;;;;;;5069385;28;20474;-78
2023/03/11 01:21:36;;;;;;;1.63;1.50;;;2.30;98.20;;;;;;5066927;28;20487;-78
2023/03/11 01:24:03;;;;;;;1.67;1.47;;;2.40;98.20;;;;;;5084298;28;20495;-78
2023/03/11 01:26:30;;;;;;;1.70;1.50;;;2.30;98.20;;;;;;5073845;28;20479;-79
2023/03/11 01:28:57;;;;;;;1.70;1.50;;;2.30;98.20;;;;;;5077436;28;20456;-80
2023/03/11 01:31:25;;;;;;;1.70;1.50;;;2.40;98.20;;;;;;5065066;28;20480;-78
2023/03/11 01:33:52;;;;;;;1.70;1.53;;;2.40;98.20;;;;;;5076343;28;20857;-78
2023/03/11 01:36:18;;;;;;;1.60;1.40;;;2.30;98.20;;;;;;5061683;28;20540;-78
2023/03/11 01:38:45;;;;;;;1.70;1.47;;;2.30;98.20;;;;;;5069583;28;20462;-78
2023/03/11 01:41:12;;;;;;;1.70;1.50;;;2.30;98.20;;;;;;5058060;28;20587;-76
2023/03/11 01:43:53;;;;;;;1.63;1.40;;;2.30;98.20;;;;;;5067079;28;20466;-78
2023/03/11 01:46:22;;;;;;;1.63;1.40;;;2.20;98.20;;;;;;5057623;28;20473;-80
2023/03/11 01:48:52;;;;;;;1.70;1.60;;;2.20;98.20;;;;;;5063362;28;20465;-77
2023/03/11 01:51:24;;;;;;;1.70;1.60;;;2.20;98.20;;;;;;5052669;28;20488;-80
2023/03/11 01:53:51;;;;;;;1.70;1.50;;;2.20;98.20;;;;;;5061957;28;20928;-78
2023/03/11 01:56:19;;;;;;;1.70;1.50;;;2.20;98.20;;;;;;5048631;28;20857;-79
2023/03/11 01:58:51;;;;;;;1.80;1.70;;;2.20;98.20;;;;;;5071711;28;20469;-78
2023/03/11 02:01:20;;;;;;;1.70;1.60;;;2.20;98.20;;;;;;5067326;28;20510;-76
2023/03/11 02:03:48;;;;;;;1.63;1.50;;;2.20;98.20;;;;;;5066770;28;20488;-77
2023/03/11 02:06:19;;;;;;;1.70;1.60;;;2.20;98.20;;;;;;5051624;28;20483;-77
2023/03/11 02:08:47;;;;;;;1.67;1.50;;;2.20;98.20;;;;;;5072858;28;20947;-79
2023/03/11 02:11:17;;;;;;;1.70;1.60;;;2.20;98.20;;;;;;5065822;28;20724;-79
2023/03/11 02:13:46;;;;;;;1.70;1.50;;;2.20;98.20;;;;;;5063906;28;20485;-77
2023/03/11 02:16:13;;;;;;;1.70;1.60;;;2.20;98.20;;;;;;5060182;28;20490;-75
2023/03/11 02:18:41;;;;;;;1.67;1.40;;;2.20;98.20;;;;;;5056832;28;20458;-77
2023/03/11 02:21:20;;;;;;;1.73;1.63;;;2.20;98.20;;;;;;5063071;28;20481;-79
2023/03/11 02:23:53;;;;;;;1.70;1.50;;;2.10;98.20;;;;;;5072221;28;21012;-80
2023/03/11 02:26:25;;;;;;;1.70;1.50;;;2.10;98.20;;;;;;5055010;28;20477;-77
2023/03/11 02:28:54;;;;;;;1.90;1.80;;;2.00;98.20;;;;;;5064055;28;20523;-77
2023/03/11 02:31:21;;;;;;;1.70;1.50;;;2.00;98.20;;;;;;5060588;28;20478;-78
2023/03/11 02:33:50;;;;;;;1.70;1.60;;;1.90;98.20;;;;;;5075606;28;20873;-78
2023/03/11 02:36:35;;;;;;;1.70;1.40;;;1.90;98.20;;;;;;5061922;28;20484;-78
2023/03/11 02:39:02;;;;;;;1.70;1.50;;;1.90;98.20;;;;;;5066591;28;20974;-77
2023/03/11 02:41:31;;;;;;;1.70;1.50;;;1.80;98.20;;;;;;5063878;28;20465;-77
2023/03/11 02:43:59;;;;;;;1.83;1.73;;;1.70;98.20;;;;;;5072216;28;20481;-77
2023/03/11 02:46:27;;;;;;;1.70;1.50;;;1.70;98.20;;;;;;5060615;28;20473;-77
2023/03/11 02:48:54;;;;;;;1.70;1.60;;;1.60;98.20;;;;;;5065834;28;20914;-77
2023/03/11 02:51:21;;;;;;;1.70;1.50;;;1.60;98.20;;;;;;5052403;28;20493;-77
2023/03/11 02:53:51;;;;;;;1.70;1.60;;;1.50;98.20;;;;;;5059647;28;20492;-77
2023/03/11 02:56:18;;;;;;;1.70;1.50;;;1.50;98.20;;;;;;5056701;28;20488;-76
2023/03/11 02:58:44;;;;;;;1.70;1.60;;;1.40;98.20;;;;;;5058857;28;20997;-80
2023/03/11 03:01:12;;;;;;;1.70;1.50;;;1.40;98.20;;;;;;5061053;28;20477;-77
2023/03/11 03:03:39;;;;;;;1.67;1.50;;;1.40;98.20;;;;;;5070857;28;20458;-77
2023/03/11 03:06:06;;;;;;;1.70;1.57;;;1.40;98.20;;;;;;5052994;28;20472;-77
2023/03/11 03:08:33;;;;;;;1.70;1.60;;;1.40;98.20;;;;;;5067549;28;20538;-78
2023/03/11 03:11:02;;;;;;;1.70;1.60;;;1.30;98.20;;;;;;5057016;28;20677;-77
2023/03/11 03:13:29;;;;;;;1.70;1.60;;;1.30;98.20;;;;;;5069819;28;20974;-77
2023/03/11 03:15:56;;;;;;;1.70;1.60;;;1.30;98.20;;;;;;5055428;28;20465;-75
2023/03/11 03:18:24;;;;;;;1.70;1.60;;;1.30;98.20;;;;;;5063133;28;20465;-75
2023/03/11 03:20:51;;;;;;;1.73;1.63;;;1.20;98.20;;;;;;5053630;28;20484;-74
2023/03/11 03:23:19;;;;;;;1.80;1.70;;;1.20;98.20;;;;;;5040034;28;20457;-74
2023/03/11 03:25:45;;;;;;;1.67;1.50;;;1.20;98.20;;;;;;5066940;28;21073;-76
2023/03/11 03:28:13;;;;;;;1.70;1.60;;;1.20;98.20;;;;;;5057440;28;20473;-75
2023/03/11 03:30:40;;;;;;;1.67;1.50;;;1.10;98.20;;;;;;5067774;28;20965;-76
2023/03/11 03:33:08;;;;;;;1.70;1.50;;;1.10;98.20;;;;;;5052697;28;20494;-74
2023/03/11 03:35:40;;;;;;;1.70;1.50;;;1.10;98.20;;;;;;5068192;28;20481;-78
2023/03/11 03:38:06;;;;;;;1.70;1.50;;;1.10;98.20;;;;;;5057326;28;20478;-74
2023/03/11 03:40:33;;;;;;;1.80;1.70;;;1.10;98.20;;;;;;5069611;28;20472;-74
2023/03/11 03:43:00;;;;;;;1.73;1.63;;;1.00;98.20;;;;;;5059713;28;20481;-76
2023/03/11 03:45:27;;;;;;;1.70;1.50;;;1.00;98.20;;;;;;5068332;28;20492;-76
2023/03/11 03:47:53;;;;;;;1.70;1.60;;;1.00;98.20;;;;;;5055302;28;20489;-76
2023/03/11 03:50:20;;;;;;;1.70;1.60;;;1.00;98.20;;;;;;5067040;28;20488;-76
2023/03/11 03:52:49;;;;;;;1.70;1.50;;;0.90;98.20;;;;;;5057679;28;21041;-78
2023/03/11 03:55:16;;;;;;;1.70;1.50;;;0.90;98.20;;;;;;5066317;28;20557;-78
2023/03/11 03:57:42;;;;;;;1.63;1.50;;;0.90;98.20;;;;;;5056085;28;20493;-78
2023/03/11 04:00:10;;;;;;;4.67;4.37;;;0.80;98.20;;;;;;5063944;28;20467;-75
2023/03/11 04:02:37;;;;;;;1.77;1.67;;;0.80;98.20;;;;;;5058314;28;20496;-77
2023/03/11 04:05:04;;;;;;;1.83;1.73;;;0.70;98.20;;;;;;5068532;28;20492;-77
2023/03/11 04:07:34;;;;;;;1.70;1.50;;;0.70;98.20;;;;;;5057122;28;20480;-77
2023/03/11 04:10:02;;;;;;;1.70;1.50;;;0.70;98.20;;;;;;5071026;28;20468;-77
2023/03/11 04:12:28;;;;;;;1.70;1.60;;;0.70;98.20;;;;;;5054327;28;20492;-77
2023/03/11 04:14:55;;;;;;;1.70;1.50;;;0.70;98.20;;;;;;5059952;28;20478;-77
2023/03/11 04:17:22;;;;;;;1.70;1.60;;;0.70;98.20;;;;;;5054184;28;20812;-75
2023/03/11 04:19:48;;;;;;;1.70;1.60;;;0.70;98.20;;;;;;5055229;28;20460;-74
2023/03/11 04:22:15;;;;;;;1.70;1.50;;;0.60;98.20;;;;;;5053913;28;20472;-75
2023/03/11 04:24:42;;;;;;;1.70;1.50;;;0.60;98.20;;;;;;5062766;28;20903;-74
2023/03/11 04:27:10;;;;;;;1.70;1.50;;;0.60;98.20;;;;;;5051620;28;20548;-75
2023/03/11 04:29:37;;;;;;;1.70;1.60;;;0.60;98.20;;;;;;5063223;28;20477;-74
2023/03/11 04:32:04;;;;;;;1.70;1.50;;;0.60;98.20;;;;;;5053622;28;20493;-74
2023/03/11 04:34:30;;;;;;;1.67;1.50;;;0.50;98.20;;;;;;5052743;28;20800;-74
2023/03/11 04:36:57;;;;;;;1.70;1.60;;;0.50;98.20;;;;;;5047353;28;20489;-73
2023/03/11 04:39:24;;;;;;;1.70;1.60;;;0.50;98.20;;;;;;5051224;28;20801;-73
2023/03/11 04:41:51;;;;;;;1.70;1.60;;;0.50;98.20;;;;;;5053772;28;20481;-73
2023/03/11 04:44:19;;;;;;;1.70;1.60;;;0.50;98.20;;;;;;5062229;28;20854;-73
2023/03/11 04:46:45;;;;;;;1.70;1.60;;;0.50;98.20;;;;;;5042965;28;20483;-74
2023/03/11 04:49:12;;;;;;;1.70;1.60;;;0.50;98.20;;;;;;5062956;28;20488;-75
2023/03/11 04:51:39;;;;;;;1.70;1.60;;;0.50;98.20;;;;;;5037809;28;20489;-75
2023/03/11 04:54:06;;;;;;;1.70;1.60;;;0.50;98.20;;;;;;5049850;28;20481;-74
2023/03/11 04:56:32;;;;;;;1.70;1.60;;;0.50;98.20;;;;;;5049989;28;20494;-74
2023/03/11 04:58:59;;;;;;;1.70;1.60;;;0.50;98.20;;;;;;5058574;28;20457;-74
2023/03/11 05:01:27;;;;;;;1.93;1.83;;;0.50;98.20;;;;;;5044469;28;20476;-75
2023/03/11 05:03:54;;;;;;;1.70;1.60;;;0.50;98.20;;;;;;5051779;28;20489;-74
2023/03/11 05:06:21;;;;;;;1.70;1.60;;;0.50;98.20;;;;;;5053318;28;20495;-74
2023/03/11 05:08:48;;;;;;;1.70;1.60;;;0.50;98.20;;;;;;5058750;28;20489;-75
2023/03/11 05:11:14;;;;;;;1.70;1.60;;;0.60;98.20;;;;;;5056012;28;20891;-75
2023/03/11 05:13:41;;;;;;;1.70;1.60;;;0.60;98.20;;;;;;5065872;28;20457;-75
2023/03/11 05:16:08;;;;;;;1.80;1.70;;;0.60;98.20;;;;;;5047647;28;20484;-75
2023/03/11 05:18:36;;;;;;;1.77;1.67;;;0.60;98.20;;;;;;5062960;28;20469;-75
2023/03/11 05:21:03;;;;;;;1.70;1.57;;;0.60;98.20;;;;;;5056761;28;21008;-75
2023/03/11 05:23:29;;;;;;;1.70;1.50;;;0.60;98.20;;;;;;5063478;28;20501;-75
2023/03/11 05:25:56;;;;;;;1.70;1.50;;;0.60;98.20;;;;;;5051855;22;20493;-91
2023/03/11 05:28:23;;;;;;;1.70;1.60;;;0.60;98.20;;;;;;5041143;28;20481;-90
2023/03/11 05:30:50;;;;;;;1.70;1.60;;;0.60;98.20;;;;;;5059824;28;20935;-89
2023/03/11 05:33:17;;;;;;;1.80;1.70;;;0.60;98.20;;;;;;5067676;28;20485;-88
2023/03/11 05:35:45;;;;;;;1.70;1.60;;;0.60;98.20;;;;;;5071499;28;20464;-89
2023/03/11 05:38:12;;;;;;;1.70;1.50;;;0.60;98.20;;;;;;5044529;28;20875;-89
2023/03/11 05:40:39;;;;;;;1.80;1.70;;;0.60;98.20;;;;;;5061819;28;20463;-88
2023/03/11 05:43:06;;;;;;;1.80;1.70;;;0.60;98.20;;;;;;5048160;28;20984;-88
2023/03/11 05:45:33;;;;;;;1.70;1.60;;;0.60;98.20;;;;;;5069339;28;20465;-88
2023/03/11 05:48:01;;;;;;;1.70;1.60;;;0.60;98.20;;;;;;5059362;28;21014;-89
2023/03/11 05:50:28;;;;;;;1.70;1.60;;;0.60;98.20;;;;;;5067203;28;20458;-88
2023/03/11 05:52:56;;;;;;;1.70;1.60;;;0.60;98.20;;;;;;5066274;28;20569;-89
2023/03/11 05:55:23;;;;;;;1.70;1.60;;;0.60;98.20;;;;;;5067985;28;20472;-89
2023/03/11 05:57:51;;;;;;;1.90;1.80;;;0.60;98.20;;;;;;5049920;28;20485;-89
2023/03/11 06:00:19;;;;;;;1.67;1.50;;;0.70;98.20;;;;;;5062807;28;21148;-89
2023/03/11 06:02:46;;;;;;;1.80;1.70;;;0.70;98.20;;;;;;5064440;28;20571;-89
2023/03/11 06:05:13;;;;;;;1.80;1.70;;;0.70;98.20;;;;;;5069481;28;20467;-89
2023/03/11 06:07:40;;;;;;;1.63;1.50;;;0.80;98.20;;;;;;5050292;28;20520;-90
2023/03/11 06:10:10;;;;;;;1.70;1.57;;;0.80;98.20;;;;;;5073133;28;20576;-90
2023/03/11 06:12:39;;;;;;;1.70;1.60;;;0.80;98.20;;;;;;5057545;28;20552;-90
2023/03/11 06:15:07;;;;;;;1.70;1.50;;;0.80;98.20;;;;;;5061766;28;20505;-91
2023/03/11 06:17:34;;;;;;;1.70;1.50;;;0.90;98.20;;;;;;5052989;28;20959;-91
2023/03/11 06:20:01;;;;;;;1.70;1.60;;;0.90;98.20;;;;;;5069816;28;20485;-92
2023/03/11 06:22:28;;;;;;;1.70;1.60;;;0.90;98.20;;;;;;5070411;28;21016;-89
2023/03/11 06:24:55;;;;;;;1.60;1.50;;;0.90;98.20;;;;;;5074940;28;20502;-92
2023/03/11 06:27:23;;;;;;;1.70;1.50;;;0.90;98.20;;;;;;5060413;28;20609;-91
2023/03/11 06:29:53;;;;;;;1.63;1.50;;;1.00;98.20;;;;;;5071857;28;21004;-89
2023/03/11 06:32:20;;;;;;;1.90;1.80;;;1.00;98.20;;;;;;5062435;28;20556;-91
2023/03/11 06:34:50;;;;;;;1.70;1.60;;;1.00;98.20;;;;;;5078943;28;20460;-91
2023/03/11 06:37:24;;;;;;;1.67;1.57;;;1.10;98.20;;;;;;5062192;28;20509;-89
2023/03/11 06:39:55;;;;;;;1.70;1.50;;;1.10;98.20;;;;;;5067326;28;20627;-89
2023/03/11 06:42:23;;;;;;;1.70;1.53;;;1.10;98.20;;;;;;5051018;28;20480;-89
2023/03/11 06:44:50;;;;;;;1.70;1.50;;;1.20;98.20;;;;;;5064371;28;20476;-89
2023/03/11 06:47:17;;;;;;;1.80;1.70;;;1.20;98.20;;;;;;5051894;28;20485;-89
2023/03/11 06:49:44;;;;;;;1.63;1.50;;;1.20;98.20;;;;;;5054101;28;20473;-90
2023/03/11 06:52:10;;;;;;;1.70;1.60;;;1.20;98.20;;;;;;5056945;28;20512;-91
2023/03/11 06:54:37;;;;;;;1.70;1.60;;;1.20;98.20;;;;;;5061772;28;20468;-90
2023/03/11 06:57:07;;;;;;;1.70;1.50;;;1.20;98.20;;;;;;5058493;28;20595;-88
2023/03/11 06:59:36;;;;;;;1.60;1.50;;;1.30;98.20;;;;;;5060335;28;20974;-92
2023/03/11 07:02:03;;;;;;;1.70;1.60;;;1.30;98.20;;;;;;5047049;28;20482;-89
2023/03/11 07:04:35;;;;;;;1.63;1.50;;;1.40;98.20;;;;;;5058428;28;20943;-89
2023/03/11 07:07:01;;;;;;;1.70;1.60;;;1.50;98.20;;;;;;5052605;28;20526;-89
2023/03/11 07:09:28;;;;;;;1.70;1.50;;;1.60;98.20;;;;;;5068235;28;20594;-89
2023/03/11 07:11:55;;;;;;;1.70;1.50;;;1.60;98.20;;;;;;5057299;28;20505;-89
2023/03/11 07:14:22;;;;;;;1.67;1.50;;;1.70;98.20;;;;;;5075202;28;20468;-90
2023/03/11 07:16:50;;;;;;;1.70;1.60;;;1.90;98.20;;;;;;5060687;28;20489;-90
2023/03/11 07:19:17;;;;;;;1.67;1.57;;;1.90;98.20;;;;;;5052902;28;20544;-90
2023/03/11 07:21:44;;;;;;;1.70;1.50;;;2.10;98.20;;;;;;5058126;28;20484;-90
2023/03/11 07:24:13;;;;;;;1.70;1.60;;;2.20;98.20;;;;;;5064504;28;20805;-90
2023/03/11 07:26:45;;;;;;;1.70;1.60;;;2.30;98.20;;;;;;5041287;28;20525;-90
2023/03/11 07:31:54;;;;;;;1.70;1.60;;;2.60;98.20;;;;;;5056415;28;20477;-90
2023/03/11 07:34:40;;;;;;;1.70;1.60;;;2.70;98.20;;;;;;5075437;28;20848;-90
2023/03/11 07:37:15;;;;;;;1.67;1.47;;;2.80;98.20;;;;;;5054527;28;20662;-90
2023/03/11 07:39:42;;;;;;;1.70;1.50;;;2.90;98.20;;;;;;5056587;28;20508;-90
2023/03/11 07:42:49;;;;;;;1.60;1.40;;;3.00;98.20;;;;;;5053980;28;20473;-90
2023/03/11 07:45:24;;;;;;;1.70;1.60;;;3.10;98.20;;;;;;5064981;28;20453;-90
2023/03/11 07:47:53;;;;;;;1.70;1.40;;;3.40;98.20;;;;;;5059896;28;20546;-90
2023/03/11 07:50:57;;;;;;;1.60;1.40;;;3.50;98.20;;;;;;5063078;28;20540;-91
2023/03/11 07:56:49;;;;;;;1.70;1.50;;;4.00;98.20;;;;;;5052712;28;20516;-88
2023/03/11 07:59:44;;;;;;;1.67;1.40;;;4.20;98.20;;;;;;5070981;28;20469;-91
2023/03/11 08:02:11;;;;;;;1.70;1.40;;;4.40;98.20;;;;;;5039090;28;20509;-90
2023/03/11 08:04:39;;;;;;;1.70;1.40;;;4.50;98.20;;;;;;5058495;28;20458;-91
2023/03/11 08:07:05;;;;;;;1.67;1.40;;;4.70;98.20;;;;;;5051519;28;20481;-91
2023/03/11 08:09:34;;;;;;;1.67;1.40;;;4.80;98.20;;;;;;5065771;28;20517;-91
2023/03/11 08:12:00;;;;;;;1.70;1.40;;;5.00;98.20;;;;;;5055564;28;20580;-91
2023/03/11 08:14:27;;;;;;;1.70;1.40;;;5.20;98.20;;;;;;5056185;28;20963;-91
2023/03/11 08:16:54;;;;;;;1.70;1.40;;;5.40;98.20;;;;;;5051478;28;20494;-91
2023/03/11 08:19:21;;;;;;;1.60;1.40;;;5.50;98.20;;;;;;5057068;28;20494;-91
2023/03/11 08:21:49;;;;;;;1.60;1.30;;;5.70;98.20;;;;;;5057008;28;20478;-91
2023/03/11 08:24:16;;;;;;;1.70;1.43;;;5.80;98.20;;;;;;5064865;28;20823;-91
2023/03/11 08:26:43;;;;;;;1.67;1.40;;;6.00;98.20;;;;;;5052614;28;20485;-91
2023/03/11 08:29:10;;;;;;;1.63;1.30;;;6.10;98.20;;;;;;5063628;28;20522;-90
2023/03/11 08:31:37;;;;;;;1.67;1.40;;;6.20;98.20;;;;;;5056423;28;20581;-90
2023/03/11 08:34:06;;;;;;;1.60;1.30;;;6.20;98.20;;;;;;5057986;28;21029;-91
2023/03/11 08:36:33;;;;;;;1.60;1.20;;;6.30;98.20;;;;;;5058953;28;20568;-90
2023/03/11 08:39:02;;;;;;;1.70;1.30;;;6.50;98.20;;;;;;5059826;28;20457;-91
2023/03/11 08:48:40;;;;;;;1.63;1.40;;;6.60;98.20;;;;;;5112331;23;20502;-76
2023/03/11 08:51:10;;;;;;;1.70;1.40;;;6.70;98.20;;;;;;5064795;28;20617;-76
2023/03/11 08:53:37;;;;;;;1.70;1.40;;;6.90;98.20;;;;;;5063830;28;20478;-75
2023/03/11 08:56:07;;;;;;;1.70;1.30;;;7.00;98.20;;;;;;5051758;28;20492;-75
2023/03/11 08:58:34;;;;;;;1.70;1.40;;;7.10;98.20;;;;;;5035232;28;20468;-75
2023/03/11 09:01:01;;;;;;;1.67;1.27;;;7.20;98.20;;;;;;5044352;28;20844;-76
2023/03/11 09:03:31;;;;;;;1.70;1.40;;;7.40;98.20;;;;;;5040541;28;20472;-76
2023/03/11 09:06:00;;;;;;;1.70;1.40;;;7.50;98.20;;;;;;5051366;28;20524;-73
2023/03/11 09:08:27;;;;;;;1.60;1.27;;;7.60;98.20;;;;;;5055957;28;20544;-74
2023/03/11 09:10:55;;;;;;;1.60;1.20;;;7.80;98.20;;;;;;5051069;28;20489;-74
2023/03/11 09:13:23;;;;;;;1.60;1.20;;;7.90;98.20;;;;;;5034874;28;20517;-74
2023/03/11 09:15:51;;;;;;;1.60;1.20;;;7.90;96.40;;;;;;5048612;28;20485;-73
2023/03/11 09:18:19;;;;;;;1.60;1.20;;;7.90;97.80;;;;;;5032610;28;20574;-75
2023/03/11 09:20:47;;;;;;;1.70;1.27;;;8.00;95.40;;;;;;5061976;28;20992;-75
2023/03/11 09:23:15;;;;;;;1.60;1.20;;;8.10;94.40;;;;;;5034170;28;20541;-75
2023/03/11 09:25:42;;;;;;;1.63;1.30;;;8.20;95.30;;;;;;5060393;28;20478;-75
2023/03/11 09:28:10;;;;;;;1.60;1.10;;;8.30;95.70;;;;;;5048991;28;20548;-74
2023/03/11 09:30:39;;;;;;;1.70;1.27;;;8.50;97.10;;;;;;5057188;28;20466;-74
2023/03/11 09:33:06;;;;;;;1.60;1.10;;;8.70;94.40;;;;;;5041493;28;21032;-74
2023/03/11 09:35:33;;;;;;;1.60;1.20;;;8.80;93.20;;;;;;5059455;28;20481;-77
2023/03/11 09:38:00;;;;;;;1.60;1.10;;;8.90;91.50;;;;;;5044417;28;20867;-76
2023/03/11 09:40:39;;;;;;;1.60;1.10;;;9.00;89.00;;;;;;5060437;28;20485;-76
2023/03/11 09:43:14;;;;;;;1.60;1.10;;;9.00;91.90;;;;;;5047820;28;20477;-76
2023/03/11 09:45:51;;;;;;;1.70;1.30;;;9.10;89.50;;;;;;5059388;28;20482;-76
2023/03/11 09:48:27;;;;;;;1.60;1.20;;;9.30;92.20;;;;;;5032630;28;20939;-75
2023/03/11 09:50:59;;;;;;;1.60;1.10;;;9.40;88.70;;;;;;5046577;28;20973;-76
2023/03/11 09:53:34;;;;;;;1.60;1.10;;;9.60;91.20;;;;;;5054477;28;20493;-76
2023/03/11 09:56:06;;;;;;;1.60;1.17;;;9.70;84.50;;;;;;5047693;28;20488;-76
2023/03/11 09:58:39;;;;;;;1.60;1.10;;;9.70;82.50;;;;;;5051147;28;20469;-76
2023/03/11 10:01:16;;;;;;;1.60;1.10;;;9.20;77.80;;;;;;5046449;28;20468;-75
2023/03/11 10:03:45;;;;;;;1.60;1.20;;;8.80;80.60;;;;;;5059886;28;20483;-75
2023/03/11 10:06:15;;;;;;;1.60;1.20;;;8.60;84.30;;;;;;5046576;28;21053;-75
2023/03/11 10:08:46;;;;;;;1.60;1.20;;;8.30;84.40;;;;;;5053143;28;21035;-75
2023/03/11 10:11:27;;;;;;;1.60;1.10;;;8.40;84.90;;;;;;5047447;28;20485;-75
2023/03/11 10:14:06;;;;;;;1.60;1.10;;;8.70;86.30;;;;;;5054681;28;21107;-76
2023/03/11 10:16:45;;;;;;;1.60;1.10;;;8.90;80.80;;;;;;5048181;28;20481;-75
2023/03/11 10:19:22;;;;;;;1.60;1.10;;;9.00;81.00;;;;;;5057587;28;20488;-75
2023/03/11 10:21:58;;;;;;;1.60;1.20;;;8.90;80.50;;;;;;5035190;28;20561;-75
2023/03/11 10:24:48;;;;;;;1.60;1.10;;;9.00;87.00;;;;;;5046863;28;20453;-75
2023/03/11 10:27:19;;;;;;;1.60;1.20;;;9.40;84.70;;;;;;5044544;28;20481;-76
2023/03/11 10:29:55;;;;;;;1.60;1.10;;;9.70;83.60;;;;;;5057806;28;20875;-76
2023/03/11 10:32:37;;;;;;;1.60;1.27;;;9.80;82.30;;;;;;5039416;28;20970;-75
2023/03/11 10:35:14;;;;;;;1.60;1.10;;;9.70;80.60;;;;;;5058625;28;20462;-73
2023/03/11 10:37:55;;;;;;;1.60;1.10;;;9.50;82.50;;;;;;5043402;28;20481;-75
2023/03/11 10:40:30;;;;;;;1.60;1.20;;;9.40;82.70;;;;;;5054080;28;20921;-73
2023/03/11 10:43:00;;;;;;;1.60;1.30;;;9.20;84.00;;;;;;5030426;28;21120;-73
2023/03/11 10:45:33;;;;;;;1.60;1.10;;;9.10;82.30;;;;;;5060001;28;20485;-74
2023/03/11 10:48:01;;;;;;;1.60;1.10;;;9.00;81.80;;;;;;5037532;28;20532;-74
2023/03/11 10:50:30;;;;;;;1.60;1.10;;;8.90;81.70;;;;;;5054201;28;20462;-73
2023/03/11 10:53:09;;;;;;;1.60;1.03;;;8.80;83.70;;;;;;5043845;28;20904;-73
2023/03/11 10:55:45;;;;;;;1.60;1.10;;;8.70;81.80;;;;;;5057025;28;21046;-74
2023/03/11 10:58:15;;;;;;;1.60;1.20;;;8.70;82.60;;;;;;5026433;28;20576;-74
2023/03/11 11:00:42;;;;;;;1.60;1.27;;;8.90;83.50;;;;;;5056937;28;20461;-74
2023/03/11 11:03:21;;;;;;;1.60;1.17;;;9.10;86.30;;;;;;5044209;28;21135;-75
2023/03/11 11:06:05;;;;;;;1.60;1.10;;;9.10;82.90;;;;;;5049922;28;20510;-75
2023/03/11 11:08:34;;;;;;;1.57;1.00;;;9.20;82.10;;;;;;5052700;28;20568;-76
2023/03/11 11:11:04;;;;;;;1.60;1.10;;;9.10;79.50;;;;;;5048904;28;20461;-75
2023/03/11 11:13:33;;;;;;;1.60;1.10;;;9.00;81.30;;;;;;5049126;28;21054;-74
2023/03/11 11:16:02;;;;;;;1.60;1.10;;;8.80;81.00;;;;;;5049252;28;20485;-75
2023/03/11 11:18:33;;;;;;;1.57;1.10;;;8.60;80.20;;;;;;5057755;28;20800;-75
2023/03/11 11:21:06;;;;;;;1.57;1.10;;;8.50;78.90;;;;;;5048176;28;20457;-74
2023/03/11 11:23:41;;;;;;;1.60;1.10;;;8.30;81.60;;;;;;5043437;28;20989;-75
2023/03/11 11:26:16;;;;;;;1.60;1.10;;;8.30;84.10;;;;;;5044473;28;20487;-75
2023/03/11 11:28:44;;;;;;;1.60;1.30;;;8.40;83.00;;;;;;5040102;28;20461;-75
2023/03/11 11:31:35;;;;;;;1.60;1.27;;;8.50;85.10;;;;;;5043304;28;20492;-75
2023/03/11 11:34:05;;;;;;;1.50;1.10;;;8.50;83.80;;;;;;5043246;28;20907;-74
2023/03/11 11:36:37;;;;;;;1.60;1.30;;;8.60;83.30;;;;;;5042077;28;20565;-75
2023/03/11 11:39:16;;;;;;;1.60;1.10;;;8.70;85.20;;;;;;5053521;28;20457;-75
2023/03/11 11:41:44;;;;;;;1.57;1.10;;;8.70;82.30;;;;;;5049590;28;20969;-75
2023/03/11 11:44:19;;;;;;;1.60;1.20;;;8.70;84.40;;;;;;5056744;28;20458;-74
2023/03/11 11:46:51;;;;;;;1.60;1.20;;;8.70;83.60;;;;;;5044528;28;21056;-75
2023/03/11 11:49:22;;;;;;;1.57;1.10;;;8.80;84.00;;;;;;5056479;28;20538;-74
2023/03/11 11:51:55;;;;;;;1.60;1.20;;;9.00;84.40;;;;;;5051907;28;20485;-76
2023/03/11 11:54:27;;;;;;;1.60;1.20;;;9.20;83.00;;;;;;5057807;28;20485;-75
2023/03/11 11:56:55;;;;;;;1.57;1.10;;;9.40;82.70;;;;;;5045730;28;20540;-76
2023/03/11 11:59:24;;;;;;;1.57;1.00;;;9.40;83.10;;;;;;5060349;28;20457;-75
2023/03/11 12:02:03;;;;;;;1.53;1.10;;;9.50;79.60;;;;;;5044572;28;20568;-74
2023/03/11 12:04:56;;;;;;;1.60;1.20;;;9.60;83.30;;;;;;5059552;28;20605;-76
2023/03/11 12:07:44;;;;;;;1.60;1.10;;;9.70;82.90;;;;;;5046623;28;20489;-73
2023/03/11 12:10:23;;;;;;;1.60;1.10;;;9.70;79.50;;;;;;5055766;28;20534;-73
2023/03/11 12:13:15;;;;;;;1.57;1.07;;;9.80;80.40;;;;;;5038209;28;20577;-73
2023/03/11 12:15:46;;;;;;;1.57;1.00;;;9.80;82.80;;;;;;5053601;28;20503;-73
2023/03/11 12:18:20;;;;;;;1.57;1.10;;;9.70;79.90;;;;;;5033866;28;21320;-73
2023/03/11 12:20:54;;;;;;;1.60;1.10;;;9.60;79.80;;;;;;5058639;28;20478;-73
2023/03/11 12:23:33;;;;;;;1.60;1.10;;;9.50;80.80;;;;;;5029886;28;20481;-74
2023/03/11 12:26:16;;;;;;;1.57;1.10;;;9.40;80.10;;;;;;5046495;28;20673;-73
2023/03/11 12:28:48;;;;;;;1.60;1.20;;;9.50;80.60;;;;;;5052186;28;21030;-74
2023/03/11 12:31:16;;;;;;;1.57;1.10;;;9.60;79.40;;;;;;5043691;28;20525;-74
2023/03/11 12:33:45;;;;;;;1.60;1.10;;;9.60;82.10;;;;;;5054573;28;20931;-75
2023/03/11 12:36:25;;;;;;;1.60;1.13;;;9.70;82.20;;;;;;5047664;28;20657;-73
2023/03/11 12:38:53;;;;;;;1.53;1.10;;;9.60;79.00;;;;;;5057301;28;20584;-74
2023/03/11 12:41:30;;;;;;;1.57;1.10;;;9.60;81.90;;;;;;5048083;28;20477;-74
2023/03/11 12:44:03;;;;;;;1.60;1.10;;;9.60;81.80;;;;;;5054580;28;20546;-74
2023/03/11 12:47:02;;;;;;;1.53;1.10;;;9.50;79.10;;;;;;5047608;28;20554;-74
2023/03/11 12:49:31;;;;;;;1.60;1.10;;;9.40;81.60;;;;;;5054501;28;20469;-74
2023/03/11 12:52:05;;;;;;;1.53;1.10;;;9.40;81.40;;;;;;5046321;28;20650;-74
2023/03/11 12:54:34;;;;;;;1.57;1.10;;;9.30;81.50;;;;;;5054616;28;20592;-72
2023/03/11 12:57:03;;;;;;;1.57;1.10;;;9.30;84.20;;;;;;5043874;28;20979;-73
2023/03/11 13:00:06;;;;;;;1.97;1.77;;;9.40;82.70;;;;;;5056563;28;20743;-75
2023/03/11 13:02:56;;;;;;;1.57;1.10;;;9.50;82.10;;;;;;5032779;28;20743;-74
2023/03/11 13:05:30;;;;;;;1.60;1.10;;;9.70;81.80;;;;;;5059475;28;20486;-73
2023/03/11 13:08:02;;;;;;;1.60;1.10;;;9.70;79.00;;;;;;5036473;28;20569;-73
2023/03/11 13:10:41;;;;;;;1.60;1.10;;;9.80;78.50;;;;;;5059243;28;20461;-73
2023/03/11 13:13:32;;;;;;;1.60;1.10;;;9.80;79.80;;;;;;5050926;28;21035;-73
2023/03/11 13:16:23;;;;;;;1.60;1.10;;;9.80;80.80;;;;;;5049439;28;20474;-73
2023/03/11 13:18:50;;;;;;;1.60;1.10;;;9.80;81.10;;;;;;5050583;28;21572;-73
2023/03/11 13:21:41;;;;;;;1.57;1.10;;;9.80;81.90;;;;;;5048447;28;20993;-73
2023/03/11 13:24:50;;;;;;;1.60;1.10;;;9.70;82.10;;;;;;5054368;28;20481;-73
2023/03/11 13:27:32;;;;;;;1.57;1.10;;;9.70;81.80;;;;;;5042539;28;20986;-73